Asheville Regional Airport (AVL)

 

Airport Diagram
Current Weather/Forecast (MVFR Conditions)
METAR KAVL 260154Z AUTO 13005KT 10SM BKN015 BKN022 OVC044 21/18 A3018 RMK AO2 RAB20E35 SLP199 P0000 T02060183
TAF KAVL 252330Z 2600/2624 13006KT P6SM VCSH SCT030 BKN110 FM260300 15003KT 6SM BR VCSH OVC010 FM260500 14003KT 5SM BR VCSH OVC008 PROB30 2609/2613 1SM -SHRA BR OVC001 FM261400 15005KT P6SM -SHRA OVC011 PROB30 2615/2618 4SM -SHRA BR OVC010

All Charts
General
Chart Name Download
AIRPORT DIAGRAM
TAKEOFF MINIMUMS
ALTERNATE MINIMUMS
HOT SPOT

Departures
Chart Name Download
ASHEVILLE FIVE

Approaches
Chart Name Download
ILS OR LOC RWY 35
RNAV (GPS) RWY 17
RNAV (GPS) RWY 35


Inbound Traffic (Arrivals)

No inbound traffic.


Outbound Traffic (Departures)

No outbound traffic.